sensor_id;sensor_type;location;lat;lon;timestamp;P1;durP1;ratioP1;P2;durP2;ratioP2
19436;SDS011;9854;50.968;4.168;2022-12-18T00:00:40;78.53;;;36.23;;
19436;SDS011;9854;50.968;4.168;2022-12-18T00:03:06;88.13;;;36.37;;
19436;SDS011;9854;50.968;4.168;2022-12-18T00:05:32;76.87;;;35.47;;
19436;SDS011;9854;50.968;4.168;2022-12-18T00:07:58;84.37;;;37.27;;
19436;SDS011;9854;50.968;4.168;2022-12-18T00:10:23;77.63;;;35.57;;
19436;SDS011;9854;50.968;4.168;2022-12-18T00:12:49;79.20;;;37.33;;
19436;SDS011;9854;50.968;4.168;2022-12-18T00:15:15;78.03;;;34.57;;
19436;SDS011;9854;50.968;4.168;2022-12-18T00:17:40;76.50;;;35.07;;
19436;SDS011;9854;50.968;4.168;2022-12-18T00:20:06;73.97;;;34.13;;
19436;SDS011;9854;50.968;4.168;2022-12-18T00:22:32;73.00;;;34.40;;
19436;SDS011;9854;50.968;4.168;2022-12-18T00:24:58;75.80;;;34.23;;
19436;SDS011;9854;50.968;4.168;2022-12-18T00:27:24;74.30;;;34.67;;
19436;SDS011;9854;50.968;4.168;2022-12-18T00:29:49;72.80;;;33.10;;
19436;SDS011;9854;50.968;4.168;2022-12-18T00:32:15;76.90;;;34.00;;
19436;SDS011;9854;50.968;4.168;2022-12-18T00:34:41;73.57;;;33.20;;
19436;SDS011;9854;50.968;4.168;2022-12-18T00:37:06;75.80;;;32.77;;
19436;SDS011;9854;50.968;4.168;2022-12-18T00:39:32;75.20;;;35.70;;
19436;SDS011;9854;50.968;4.168;2022-12-18T00:41:58;76.07;;;33.50;;
19436;SDS011;9854;50.968;4.168;2022-12-18T00:44:42;73.57;;;32.37;;
19436;SDS011;9854;50.968;4.168;2022-12-18T00:47:08;75.77;;;33.13;;
19436;SDS011;9854;50.968;4.168;2022-12-18T00:49:33;79.13;;;33.73;;
19436;SDS011;9854;50.968;4.168;2022-12-18T00:51:59;73.83;;;33.63;;
19436;SDS011;9854;50.968;4.168;2022-12-18T00:54:24;80.53;;;34.83;;
19436;SDS011;9854;50.968;4.168;2022-12-18T00:56:50;78.60;;;35.20;;
19436;SDS011;9854;50.968;4.168;2022-12-18T00:59:17;77.97;;;35.40;;
19436;SDS011;9854;50.968;4.168;2022-12-18T01:01:43;79.57;;;34.20;;
19436;SDS011;9854;50.968;4.168;2022-12-18T01:04:09;78.97;;;35.07;;
19436;SDS011;9854;50.968;4.168;2022-12-18T01:06:35;77.43;;;34.53;;
19436;SDS011;9854;50.968;4.168;2022-12-18T01:09:01;79.33;;;33.73;;
19436;SDS011;9854;50.968;4.168;2022-12-18T01:11:27;72.43;;;32.83;;
19436;SDS011;9854;50.968;4.168;2022-12-18T01:13:53;78.40;;;33.13;;
19436;SDS011;9854;50.968;4.168;2022-12-18T01:16:19;78.30;;;32.60;;
19436;SDS011;9854;50.968;4.168;2022-12-18T01:18:45;72.53;;;33.67;;
19436;SDS011;9854;50.968;4.168;2022-12-18T01:21:12;76.80;;;33.57;;
19436;SDS011;9854;50.968;4.168;2022-12-18T01:23:40;76.77;;;34.57;;
19436;SDS011;9854;50.968;4.168;2022-12-18T01:26:09;81.33;;;35.57;;
19436;SDS011;9854;50.968;4.168;2022-12-18T01:28:38;78.27;;;34.27;;
19436;SDS011;9854;50.968;4.168;2022-12-18T01:33:46;76.37;;;34.73;;
19436;SDS011;9854;50.968;4.168;2022-12-18T01:36:21;74.97;;;34.47;;
19436;SDS011;9854;50.968;4.168;2022-12-18T01:38:48;75.05;;;34.45;;
19436;SDS011;9854;50.968;4.168;2022-12-18T01:41:15;73.70;;;34.13;;
19436;SDS011;9854;50.968;4.168;2022-12-18T01:46:22;72.70;;;33.53;;
19436;SDS011;9854;50.968;4.168;2022-12-18T01:48:49;80.27;;;35.67;;
19436;SDS011;9854;50.968;4.168;2022-12-18T01:51:18;73.60;;;33.67;;
19436;SDS011;9854;50.968;4.168;2022-12-18T01:53:44;82.57;;;35.70;;
19436;SDS011;9854;50.968;4.168;2022-12-18T01:56:15;74.27;;;34.53;;
19436;SDS011;9854;50.968;4.168;2022-12-18T02:01:17;77.67;;;34.83;;
19436;SDS011;9854;50.968;4.168;2022-12-18T02:03:46;77.97;;;35.07;;
19436;SDS011;9854;50.968;4.168;2022-12-18T02:08:54;62.93;;;31.27;;
19436;SDS011;9854;50.968;4.168;2022-12-18T02:16:59;67.63;;;29.93;;
19436;SDS011;9854;50.968;4.168;2022-12-18T02:25:25;73.17;;;33.77;;
19436;SDS011;9854;50.968;4.168;2022-12-18T02:27:54;80.90;;;33.50;;
19436;SDS011;9854;50.968;4.168;2022-12-18T02:30:24;77.50;;;32.90;;
19436;SDS011;9854;50.968;4.168;2022-12-18T02:32:54;68.63;;;32.07;;
19436;SDS011;9854;50.968;4.168;2022-12-18T02:35:23;72.40;;;32.27;;
19436;SDS011;9854;50.968;4.168;2022-12-18T02:37:52;66.43;;;30.63;;
19436;SDS011;9854;50.968;4.168;2022-12-18T02:40:19;74.17;;;31.40;;
19436;SDS011;9854;50.968;4.168;2022-12-18T02:42:46;72.80;;;33.10;;
19436;SDS011;9854;50.968;4.168;2022-12-18T02:45:12;73.47;;;31.27;;
19436;SDS011;9854;50.968;4.168;2022-12-18T02:47:39;70.43;;;30.43;;
19436;SDS011;9854;50.968;4.168;2022-12-18T02:50:09;69.73;;;30.50;;
19436;SDS011;9854;50.968;4.168;2022-12-18T03:03:22;68.57;;;29.47;;
19436;SDS011;9854;50.968;4.168;2022-12-18T03:09:19;60.60;;;27.63;;
19436;SDS011;9854;50.968;4.168;2022-12-18T03:12:09;66.93;;;29.23;;
19436;SDS011;9854;50.968;4.168;2022-12-18T03:15:03;69.33;;;29.43;;
19436;SDS011;9854;50.968;4.168;2022-12-18T03:17:31;72.50;;;32.47;;
19436;SDS011;9854;50.968;4.168;2022-12-18T03:20:00;73.67;;;31.70;;
19436;SDS011;9854;50.968;4.168;2022-12-18T03:22:33;69.33;;;31.17;;
19436;SDS011;9854;50.968;4.168;2022-12-18T03:25:01;69.60;;;29.30;;
19436;SDS011;9854;50.968;4.168;2022-12-18T03:27:29;72.33;;;31.60;;
19436;SDS011;9854;50.968;4.168;2022-12-18T03:30:01;66.13;;;29.47;;
19436;SDS011;9854;50.968;4.168;2022-12-18T03:32:33;66.53;;;30.50;;
19436;SDS011;9854;50.968;4.168;2022-12-18T03:35:05;68.27;;;29.87;;
19436;SDS011;9854;50.968;4.168;2022-12-18T03:37:32;61.93;;;28.40;;
19436;SDS011;9854;50.968;4.168;2022-12-18T03:39:59;65.90;;;29.37;;
19436;SDS011;9854;50.968;4.168;2022-12-18T03:42:26;63.87;;;29.53;;
19436;SDS011;9854;50.968;4.168;2022-12-18T03:45:00;67.97;;;28.87;;
19436;SDS011;9854;50.968;4.168;2022-12-18T03:56:07;57.17;;;27.63;;
19436;SDS011;9854;50.968;4.168;2022-12-18T03:58:34;59.67;;;27.37;;
19436;SDS011;9854;50.968;4.168;2022-12-18T04:01:02;61.67;;;27.67;;
19436;SDS011;9854;50.968;4.168;2022-12-18T04:03:31;60.93;;;26.13;;
19436;SDS011;9854;50.968;4.168;2022-12-18T04:05:58;61.57;;;25.47;;
19436;SDS011;9854;50.968;4.168;2022-12-18T04:08:25;61.57;;;27.50;;
19436;SDS011;9854;50.968;4.168;2022-12-18T04:10:52;62.00;;;26.77;;
19436;SDS011;9854;50.968;4.168;2022-12-18T04:13:52;57.20;;;26.40;;
19436;SDS011;9854;50.968;4.168;2022-12-18T04:16:09;60.80;;;27.40;;
19436;SDS011;9854;50.968;4.168;2022-12-18T04:18:35;66.10;;;28.43;;
19436;SDS011;9854;50.968;4.168;2022-12-18T04:21:02;55.07;;;26.77;;
19436;SDS011;9854;50.968;4.168;2022-12-18T04:23:28;59.50;;;27.73;;
19436;SDS011;9854;50.968;4.168;2022-12-18T04:25:54;55.37;;;26.13;;
19436;SDS011;9854;50.968;4.168;2022-12-18T04:28:19;52.67;;;25.43;;
19436;SDS011;9854;50.968;4.168;2022-12-18T04:30:45;65.73;;;29.13;;
19436;SDS011;9854;50.968;4.168;2022-12-18T04:33:11;58.53;;;26.17;;
19436;SDS011;9854;50.968;4.168;2022-12-18T04:35:39;53.07;;;27.10;;
19436;SDS011;9854;50.968;4.168;2022-12-18T04:38:08;62.97;;;27.60;;
19436;SDS011;9854;50.968;4.168;2022-12-18T04:40:37;58.50;;;27.33;;
19436;SDS011;9854;50.968;4.168;2022-12-18T04:43:03;60.30;;;26.87;;
19436;SDS011;9854;50.968;4.168;2022-12-18T04:45:29;58.63;;;27.07;;
19436;SDS011;9854;50.968;4.168;2022-12-18T04:47:57;60.60;;;27.57;;
19436;SDS011;9854;50.968;4.168;2022-12-18T04:50:23;59.37;;;28.30;;
19436;SDS011;9854;50.968;4.168;2022-12-18T04:52:49;80.67;;;30.07;;
19436;SDS011;9854;50.968;4.168;2022-12-18T04:55:14;65.53;;;29.43;;
19436;SDS011;9854;50.968;4.168;2022-12-18T04:57:40;64.00;;;29.70;;
19436;SDS011;9854;50.968;4.168;2022-12-18T05:00:06;66.20;;;30.03;;
19436;SDS011;9854;50.968;4.168;2022-12-18T05:02:32;58.57;;;29.43;;
19436;SDS011;9854;50.968;4.168;2022-12-18T05:04:57;66.03;;;29.23;;
19436;SDS011;9854;50.968;4.168;2022-12-18T05:07:23;61.03;;;29.43;;
19436;SDS011;9854;50.968;4.168;2022-12-18T05:09:49;61.70;;;28.40;;
19436;SDS011;9854;50.968;4.168;2022-12-18T05:12:15;59.20;;;29.43;;
19436;SDS011;9854;50.968;4.168;2022-12-18T05:14:40;61.83;;;27.30;;
19436;SDS011;9854;50.968;4.168;2022-12-18T05:17:06;59.00;;;27.70;;
19436;SDS011;9854;50.968;4.168;2022-12-18T05:19:32;66.60;;;28.53;;
19436;SDS011;9854;50.968;4.168;2022-12-18T05:21:58;62.67;;;28.27;;
19436;SDS011;9854;50.968;4.168;2022-12-18T05:24:23;52.83;;;25.37;;
19436;SDS011;9854;50.968;4.168;2022-12-18T05:26:49;50.73;;;26.53;;
19436;SDS011;9854;50.968;4.168;2022-12-18T05:29:14;64.10;;;27.23;;
19436;SDS011;9854;50.968;4.168;2022-12-18T05:31:40;55.07;;;25.43;;
19436;SDS011;9854;50.968;4.168;2022-12-18T05:34:06;51.37;;;24.40;;
19436;SDS011;9854;50.968;4.168;2022-12-18T05:36:31;52.43;;;25.47;;
19436;SDS011;9854;50.968;4.168;2022-12-18T05:38:57;49.97;;;24.20;;
19436;SDS011;9854;50.968;4.168;2022-12-18T05:41:23;57.97;;;25.43;;
19436;SDS011;9854;50.968;4.168;2022-12-18T05:43:48;47.87;;;24.20;;
19436;SDS011;9854;50.968;4.168;2022-12-18T05:46:15;50.90;;;24.00;;
19436;SDS011;9854;50.968;4.168;2022-12-18T05:48:42;47.30;;;23.97;;
19436;SDS011;9854;50.968;4.168;2022-12-18T05:51:10;50.70;;;23.50;;
19436;SDS011;9854;50.968;4.168;2022-12-18T05:53:37;49.43;;;24.60;;
19436;SDS011;9854;50.968;4.168;2022-12-18T05:56:04;47.83;;;23.20;;
19436;SDS011;9854;50.968;4.168;2022-12-18T05:58:32;50.90;;;24.77;;
19436;SDS011;9854;50.968;4.168;2022-12-18T06:01:05;54.57;;;25.80;;
19436;SDS011;9854;50.968;4.168;2022-12-18T06:03:44;54.60;;;26.17;;
19436;SDS011;9854;50.968;4.168;2022-12-18T06:06:16;46.23;;;24.37;;
19436;SDS011;9854;50.968;4.168;2022-12-18T06:08:43;53.83;;;24.57;;
19436;SDS011;9854;50.968;4.168;2022-12-18T06:11:09;44.23;;;23.10;;
19436;SDS011;9854;50.968;4.168;2022-12-18T06:13:35;45.93;;;22.33;;
19436;SDS011;9854;50.968;4.168;2022-12-18T06:16:02;46.27;;;24.20;;
19436;SDS011;9854;50.968;4.168;2022-12-18T06:18:29;46.10;;;21.73;;
19436;SDS011;9854;50.968;4.168;2022-12-18T06:20:55;50.70;;;24.37;;
19436;SDS011;9854;50.968;4.168;2022-12-18T06:23:22;48.17;;;24.67;;
19436;SDS011;9854;50.968;4.168;2022-12-18T06:25:47;44.10;;;23.53;;
19436;SDS011;9854;50.968;4.168;2022-12-18T06:28:13;40.53;;;21.47;;
19436;SDS011;9854;50.968;4.168;2022-12-18T06:30:39;44.60;;;22.53;;
19436;SDS011;9854;50.968;4.168;2022-12-18T06:33:04;48.10;;;23.03;;
19436;SDS011;9854;50.968;4.168;2022-12-18T06:35:31;44.10;;;21.87;;
19436;SDS011;9854;50.968;4.168;2022-12-18T06:37:57;47.90;;;22.40;;
19436;SDS011;9854;50.968;4.168;2022-12-18T06:40:22;43.57;;;22.10;;
19436;SDS011;9854;50.968;4.168;2022-12-18T06:42:48;44.73;;;21.93;;
19436;SDS011;9854;50.968;4.168;2022-12-18T06:45:14;45.23;;;21.60;;
19436;SDS011;9854;50.968;4.168;2022-12-18T06:47:39;41.93;;;22.00;;
19436;SDS011;9854;50.968;4.168;2022-12-18T06:50:05;44.77;;;24.27;;
19436;SDS011;9854;50.968;4.168;2022-12-18T06:52:31;38.57;;;23.60;;
19436;SDS011;9854;50.968;4.168;2022-12-18T06:54:57;45.40;;;23.90;;
19436;SDS011;9854;50.968;4.168;2022-12-18T06:57:23;39.60;;;21.97;;
19436;SDS011;9854;50.968;4.168;2022-12-18T06:59:49;40.97;;;22.30;;
19436;SDS011;9854;50.968;4.168;2022-12-18T07:02:14;48.57;;;24.30;;
19436;SDS011;9854;50.968;4.168;2022-12-18T07:04:40;38.90;;;22.37;;
19436;SDS011;9854;50.968;4.168;2022-12-18T07:07:05;49.07;;;23.17;;
19436;SDS011;9854;50.968;4.168;2022-12-18T07:09:31;48.17;;;22.53;;
19436;SDS011;9854;50.968;4.168;2022-12-18T07:11:57;41.87;;;22.37;;
19436;SDS011;9854;50.968;4.168;2022-12-18T07:14:22;41.67;;;24.23;;
19436;SDS011;9854;50.968;4.168;2022-12-18T07:16:48;37.73;;;21.10;;
19436;SDS011;9854;50.968;4.168;2022-12-18T07:19:13;38.67;;;22.70;;
19436;SDS011;9854;50.968;4.168;2022-12-18T07:21:39;40.23;;;22.50;;
19436;SDS011;9854;50.968;4.168;2022-12-18T07:24:05;38.23;;;22.00;;
19436;SDS011;9854;50.968;4.168;2022-12-18T07:26:31;38.70;;;21.43;;
19436;SDS011;9854;50.968;4.168;2022-12-18T07:28:56;44.40;;;22.70;;
19436;SDS011;9854;50.968;4.168;2022-12-18T07:31:23;46.73;;;23.13;;
19436;SDS011;9854;50.968;4.168;2022-12-18T07:33:50;44.88;;;28.90;;
19436;SDS011;9854;50.968;4.168;2022-12-18T07:36:16;42.57;;;22.43;;
19436;SDS011;9854;50.968;4.168;2022-12-18T07:38:42;38.97;;;21.90;;
19436;SDS011;9854;50.968;4.168;2022-12-18T07:41:11;39.57;;;21.43;;
19436;SDS011;9854;50.968;4.168;2022-12-18T07:43:38;38.33;;;20.20;;
19436;SDS011;9854;50.968;4.168;2022-12-18T07:46:04;38.87;;;19.00;;
19436;SDS011;9854;50.968;4.168;2022-12-18T07:48:31;35.40;;;19.73;;
19436;SDS011;9854;50.968;4.168;2022-12-18T07:51:00;31.67;;;18.27;;
19436;SDS011;9854;50.968;4.168;2022-12-18T07:53:26;38.40;;;20.87;;
19436;SDS011;9854;50.968;4.168;2022-12-18T07:55:56;43.87;;;20.87;;
19436;SDS011;9854;50.968;4.168;2022-12-18T07:58:22;42.57;;;20.60;;
19436;SDS011;9854;50.968;4.168;2022-12-18T08:00:47;42.30;;;19.73;;
19436;SDS011;9854;50.968;4.168;2022-12-18T08:03:13;43.37;;;26.80;;
19436;SDS011;9854;50.968;4.168;2022-12-18T08:05:38;39.03;;;21.60;;
19436;SDS011;9854;50.968;4.168;2022-12-18T08:08:04;39.27;;;21.30;;
19436;SDS011;9854;50.968;4.168;2022-12-18T08:10:30;44.40;;;26.83;;
19436;SDS011;9854;50.968;4.168;2022-12-18T08:12:56;41.17;;;23.20;;
19436;SDS011;9854;50.968;4.168;2022-12-18T08:15:21;44.63;;;23.43;;
19436;SDS011;9854;50.968;4.168;2022-12-18T08:17:47;41.55;;;25.67;;
19436;SDS011;9854;50.968;4.168;2022-12-18T08:20:13;40.57;;;23.10;;
19436;SDS011;9854;50.968;4.168;2022-12-18T08:22:43;39.53;;;21.53;;
19436;SDS011;9854;50.968;4.168;2022-12-18T08:25:09;42.13;;;22.23;;
19436;SDS011;9854;50.968;4.168;2022-12-18T08:27:34;40.50;;;21.53;;
19436;SDS011;9854;50.968;4.168;2022-12-18T08:30:00;32.23;;;19.37;;
19436;SDS011;9854;50.968;4.168;2022-12-18T08:32:26;42.50;;;25.52;;
19436;SDS011;9854;50.968;4.168;2022-12-18T08:34:53;35.20;;;22.07;;
19436;SDS011;9854;50.968;4.168;2022-12-18T08:37:18;36.37;;;21.43;;
19436;SDS011;9854;50.968;4.168;2022-12-18T08:39:44;44.47;;;26.37;;
19436;SDS011;9854;50.968;4.168;2022-12-18T08:42:10;35.53;;;22.50;;
19436;SDS011;9854;50.968;4.168;2022-12-18T08:44:54;36.23;;;22.30;;
19436;SDS011;9854;50.968;4.168;2022-12-18T08:47:20;34.97;;;20.40;;
19436;SDS011;9854;50.968;4.168;2022-12-18T08:49:46;34.90;;;21.70;;
19436;SDS011;9854;50.968;4.168;2022-12-18T08:52:11;34.63;;;20.87;;
19436;SDS011;9854;50.968;4.168;2022-12-18T08:54:40;37.77;;;21.50;;
19436;SDS011;9854;50.968;4.168;2022-12-18T08:57:05;36.70;;;20.83;;
19436;SDS011;9854;50.968;4.168;2022-12-18T08:59:31;41.83;;;20.73;;
19436;SDS011;9854;50.968;4.168;2022-12-18T09:01:57;35.40;;;19.70;;
19436;SDS011;9854;50.968;4.168;2022-12-18T09:04:23;42.20;;;21.23;;
19436;SDS011;9854;50.968;4.168;2022-12-18T09:06:48;36.97;;;20.70;;
19436;SDS011;9854;50.968;4.168;2022-12-18T09:09:14;32.70;;;19.67;;
19436;SDS011;9854;50.968;4.168;2022-12-18T09:11:39;35.10;;;21.10;;
19436;SDS011;9854;50.968;4.168;2022-12-18T09:14:05;39.03;;;23.10;;
19436;SDS011;9854;50.968;4.168;2022-12-18T09:16:31;38.27;;;21.93;;
19436;SDS011;9854;50.968;4.168;2022-12-18T09:18:57;38.57;;;21.60;;
19436;SDS011;9854;50.968;4.168;2022-12-18T09:21:25;37.30;;;20.13;;
19436;SDS011;9854;50.968;4.168;2022-12-18T09:23:53;38.83;;;22.13;;
19436;SDS011;9854;50.968;4.168;2022-12-18T09:26:20;36.90;;;20.70;;
19436;SDS011;9854;50.968;4.168;2022-12-18T09:28:46;38.93;;;20.80;;
19436;SDS011;9854;50.968;4.168;2022-12-18T09:31:12;36.87;;;20.10;;
19436;SDS011;9854;50.968;4.168;2022-12-18T09:33:39;35.13;;;20.80;;
19436;SDS011;9854;50.968;4.168;2022-12-18T09:36:05;33.20;;;19.37;;
19436;SDS011;9854;50.968;4.168;2022-12-18T09:38:32;34.90;;;19.10;;
19436;SDS011;9854;50.968;4.168;2022-12-18T09:44:32;42.67;;;22.23;;
19436;SDS011;9854;50.968;4.168;2022-12-18T09:49:31;35.07;;;18.13;;
19436;SDS011;9854;50.968;4.168;2022-12-18T09:52:09;38.13;;;21.80;;
19436;SDS011;9854;50.968;4.168;2022-12-18T09:54:41;32.07;;;21.40;;
19436;SDS011;9854;50.968;4.168;2022-12-18T09:57:22;33.47;;;20.83;;
19436;SDS011;9854;50.968;4.168;2022-12-18T09:59:51;32.43;;;21.73;;
19436;SDS011;9854;50.968;4.168;2022-12-18T10:02:24;36.00;;;21.30;;
19436;SDS011;9854;50.968;4.168;2022-12-18T10:04:57;34.87;;;20.93;;
19436;SDS011;9854;50.968;4.168;2022-12-18T10:07:43;34.40;;;22.10;;
19436;SDS011;9854;50.968;4.168;2022-12-18T10:15:50;35.63;;;21.00;;
19436;SDS011;9854;50.968;4.168;2022-12-18T10:20:50;29.80;;;19.50;;
19436;SDS011;9854;50.968;4.168;2022-12-18T10:23:33;32.53;;;20.80;;
19436;SDS011;9854;50.968;4.168;2022-12-18T10:26:27;35.30;;;21.20;;
19436;SDS011;9854;50.968;4.168;2022-12-18T10:28:52;33.13;;;20.50;;
19436;SDS011;9854;50.968;4.168;2022-12-18T10:31:23;32.87;;;21.33;;
19436;SDS011;9854;50.968;4.168;2022-12-18T10:33:49;38.37;;;21.93;;
19436;SDS011;9854;50.968;4.168;2022-12-18T10:36:15;34.83;;;21.30;;
19436;SDS011;9854;50.968;4.168;2022-12-18T10:38:40;31.63;;;20.07;;
19436;SDS011;9854;50.968;4.168;2022-12-18T10:41:22;33.47;;;21.10;;
19436;SDS011;9854;50.968;4.168;2022-12-18T10:44:10;30.37;;;20.63;;
19436;SDS011;9854;50.968;4.168;2022-12-18T10:46:35;31.40;;;20.50;;
19436;SDS011;9854;50.968;4.168;2022-12-18T10:49:03;34.10;;;20.70;;
19436;SDS011;9854;50.968;4.168;2022-12-18T10:51:30;33.97;;;20.67;;
19436;SDS011;9854;50.968;4.168;2022-12-18T10:54:01;34.80;;;22.03;;
19436;SDS011;9854;50.968;4.168;2022-12-18T10:56:29;31.07;;;21.40;;
19436;SDS011;9854;50.968;4.168;2022-12-18T10:59:01;33.90;;;21.90;;
19436;SDS011;9854;50.968;4.168;2022-12-18T11:04:32;30.57;;;21.60;;
19436;SDS011;9854;50.968;4.168;2022-12-18T11:07:01;34.87;;;19.83;;
19436;SDS011;9854;50.968;4.168;2022-12-18T11:12:04;28.93;;;21.43;;
19436;SDS011;9854;50.968;4.168;2022-12-18T11:14:52;27.73;;;20.43;;
19436;SDS011;9854;50.968;4.168;2022-12-18T11:19:56;31.97;;;22.33;;
19436;SDS011;9854;50.968;4.168;2022-12-18T11:22:27;30.67;;;23.03;;
19436;SDS011;9854;50.968;4.168;2022-12-18T11:25:03;31.90;;;22.57;;
19436;SDS011;9854;50.968;4.168;2022-12-18T11:27:51;31.63;;;22.07;;
19436;SDS011;9854;50.968;4.168;2022-12-18T11:30:30;31.37;;;21.70;;
19436;SDS011;9854;50.968;4.168;2022-12-18T11:33:17;32.80;;;23.53;;
19436;SDS011;9854;50.968;4.168;2022-12-18T11:40:46;31.77;;;22.67;;
19436;SDS011;9854;50.968;4.168;2022-12-18T11:43:17;29.50;;;23.13;;
19436;SDS011;9854;50.968;4.168;2022-12-18T11:45:54;30.40;;;23.70;;
19436;SDS011;9854;50.968;4.168;2022-12-18T11:48:32;33.50;;;24.67;;
19436;SDS011;9854;50.968;4.168;2022-12-18T11:51:02;30.40;;;24.53;;
19436;SDS011;9854;50.968;4.168;2022-12-18T11:53:30;32.20;;;24.70;;
19436;SDS011;9854;50.968;4.168;2022-12-18T11:56:15;34.63;;;25.60;;
19436;SDS011;9854;50.968;4.168;2022-12-18T12:15:21;25.17;;;19.65;;
19436;SDS011;9854;50.968;4.168;2022-12-18T12:18:08;27.30;;;19.77;;
19436;SDS011;9854;50.968;4.168;2022-12-18T12:39:36;22.70;;;18.47;;
19436;SDS011;9854;50.968;4.168;2022-12-18T12:42:04;22.27;;;17.83;;
19436;SDS011;9854;50.968;4.168;2022-12-18T12:44:56;23.37;;;18.73;;
19436;SDS011;9854;50.968;4.168;2022-12-18T12:47:27;33.50;;;23.83;;
19436;SDS011;9854;50.968;4.168;2022-12-18T12:49:58;29.30;;;20.47;;
19436;SDS011;9854;50.968;4.168;2022-12-18T12:52:30;32.90;;;23.67;;
19436;SDS011;9854;50.968;4.168;2022-12-18T12:55:05;30.43;;;21.90;;
19436;SDS011;9854;50.968;4.168;2022-12-18T12:57:41;28.10;;;19.90;;
19436;SDS011;9854;50.968;4.168;2022-12-18T13:00:15;24.43;;;18.97;;
19436;SDS011;9854;50.968;4.168;2022-12-18T13:02:58;26.70;;;19.30;;
19436;SDS011;9854;50.968;4.168;2022-12-18T13:08:06;37.97;;;25.63;;
19436;SDS011;9854;50.968;4.168;2022-12-18T13:10:40;44.67;;;29.80;;
19436;SDS011;9854;50.968;4.168;2022-12-18T13:15:47;27.40;;;20.67;;
19436;SDS011;9854;50.968;4.168;2022-12-18T13:18:27;31.27;;;22.13;;
19436;SDS011;9854;50.968;4.168;2022-12-18T13:25:57;29.70;;;21.80;;
19436;SDS011;9854;50.968;4.168;2022-12-18T13:31:13;33.43;;;22.17;;
19436;SDS011;9854;50.968;4.168;2022-12-18T13:33:41;34.40;;;23.10;;
19436;SDS011;9854;50.968;4.168;2022-12-18T13:36:13;32.27;;;23.37;;
19436;SDS011;9854;50.968;4.168;2022-12-18T13:38:40;33.30;;;24.17;;
19436;SDS011;9854;50.968;4.168;2022-12-18T13:43:52;34.50;;;24.27;;
19436;SDS011;9854;50.968;4.168;2022-12-18T13:46:45;42.47;;;28.57;;
19436;SDS011;9854;50.968;4.168;2022-12-18T13:51:39;47.57;;;28.93;;
19436;SDS011;9854;50.968;4.168;2022-12-18T13:54:19;39.07;;;27.57;;
19436;SDS011;9854;50.968;4.168;2022-12-18T13:56:45;44.27;;;29.10;;
19436;SDS011;9854;50.968;4.168;2022-12-18T14:01:46;39.17;;;27.07;;
19436;SDS011;9854;50.968;4.168;2022-12-18T14:04:22;39.53;;;25.30;;
19436;SDS011;9854;50.968;4.168;2022-12-18T14:06:56;37.97;;;25.67;;
19436;SDS011;9854;50.968;4.168;2022-12-18T14:09:28;33.77;;;24.20;;
19436;SDS011;9854;50.968;4.168;2022-12-18T14:11:55;50.93;;;33.80;;
19436;SDS011;9854;50.968;4.168;2022-12-18T14:14:42;44.23;;;30.47;;
19436;SDS011;9854;50.968;4.168;2022-12-18T14:17:12;44.97;;;30.80;;
19436;SDS011;9854;50.968;4.168;2022-12-18T14:19:46;47.47;;;31.50;;
19436;SDS011;9854;50.968;4.168;2022-12-18T14:22:18;52.33;;;32.03;;
19436;SDS011;9854;50.968;4.168;2022-12-18T14:24:46;49.83;;;32.43;;
19436;SDS011;9854;50.968;4.168;2022-12-18T14:27:29;56.00;;;34.83;;
19436;SDS011;9854;50.968;4.168;2022-12-18T14:29:54;49.73;;;31.63;;
19436;SDS011;9854;50.968;4.168;2022-12-18T14:32:20;47.17;;;31.77;;
19436;SDS011;9854;50.968;4.168;2022-12-18T14:34:47;62.37;;;35.80;;
19436;SDS011;9854;50.968;4.168;2022-12-18T14:37:17;60.90;;;33.97;;
19436;SDS011;9854;50.968;4.168;2022-12-18T14:39:56;56.87;;;35.43;;
19436;SDS011;9854;50.968;4.168;2022-12-18T14:42:23;55.47;;;34.67;;
19436;SDS011;9854;50.968;4.168;2022-12-18T14:45:10;59.80;;;37.17;;
19436;SDS011;9854;50.968;4.168;2022-12-18T14:47:58;56.33;;;33.63;;
19436;SDS011;9854;50.968;4.168;2022-12-18T14:50:25;53.67;;;33.50;;
19436;SDS011;9854;50.968;4.168;2022-12-18T14:52:51;51.00;;;31.97;;
19436;SDS011;9854;50.968;4.168;2022-12-18T14:55:17;48.43;;;31.37;;
19436;SDS011;9854;50.968;4.168;2022-12-18T14:57:45;45.80;;;30.47;;
19436;SDS011;9854;50.968;4.168;2022-12-18T15:00:15;47.70;;;29.90;;
19436;SDS011;9854;50.968;4.168;2022-12-18T15:02:43;58.30;;;35.10;;
19436;SDS011;9854;50.968;4.168;2022-12-18T15:07:53;64.77;;;39.60;;
19436;SDS011;9854;50.968;4.168;2022-12-18T15:10:21;69.00;;;38.50;;
19436;SDS011;9854;50.968;4.168;2022-12-18T15:20:40;56.67;;;33.83;;
19436;SDS011;9854;50.968;4.168;2022-12-18T15:23:49;53.33;;;33.77;;
19436;SDS011;9854;50.968;4.168;2022-12-18T15:26:17;49.60;;;31.93;;
19436;SDS011;9854;50.968;4.168;2022-12-18T15:28:51;46.47;;;31.73;;
19436;SDS011;9854;50.968;4.168;2022-12-18T15:33:43;51.53;;;31.50;;
19436;SDS011;9854;50.968;4.168;2022-12-18T15:36:19;48.80;;;31.10;;
19436;SDS011;9854;50.968;4.168;2022-12-18T15:38:47;52.97;;;32.07;;
19436;SDS011;9854;50.968;4.168;2022-12-18T15:41:14;55.27;;;33.10;;
19436;SDS011;9854;50.968;4.168;2022-12-18T15:43:41;46.93;;;30.53;;
19436;SDS011;9854;50.968;4.168;2022-12-18T15:46:14;48.60;;;31.37;;
19436;SDS011;9854;50.968;4.168;2022-12-18T15:48:47;49.20;;;32.87;;
19436;SDS011;9854;50.968;4.168;2022-12-18T15:51:16;53.53;;;31.87;;
19436;SDS011;9854;50.968;4.168;2022-12-18T15:54:02;56.87;;;35.37;;
19436;SDS011;9854;50.968;4.168;2022-12-18T15:56:29;53.33;;;33.77;;
19436;SDS011;9854;50.968;4.168;2022-12-18T15:59:15;65.33;;;35.80;;
19436;SDS011;9854;50.968;4.168;2022-12-18T16:01:43;51.63;;;31.53;;
19436;SDS011;9854;50.968;4.168;2022-12-18T16:04:11;46.72;;;31.77;;
19436;SDS011;9854;50.968;4.168;2022-12-18T16:06:39;57.23;;;33.97;;
19436;SDS011;9854;50.968;4.168;2022-12-18T16:09:05;54.53;;;34.30;;
19436;SDS011;9854;50.968;4.168;2022-12-18T16:11:31;52.73;;;32.17;;
19436;SDS011;9854;50.968;4.168;2022-12-18T16:16:49;61.87;;;34.50;;
19436;SDS011;9854;50.968;4.168;2022-12-18T16:19:16;70.90;;;36.57;;
19436;SDS011;9854;50.968;4.168;2022-12-18T16:21:43;52.40;;;32.23;;
19436;SDS011;9854;50.968;4.168;2022-12-18T16:24:19;62.37;;;37.73;;
19436;SDS011;9854;50.968;4.168;2022-12-18T16:26:47;51.70;;;32.23;;
19436;SDS011;9854;50.968;4.168;2022-12-18T16:29:13;44.55;;;31.42;;
19436;SDS011;9854;50.968;4.168;2022-12-18T16:31:39;46.77;;;31.27;;
19436;SDS011;9854;50.968;4.168;2022-12-18T16:34:17;46.13;;;30.07;;
19436;SDS011;9854;50.968;4.168;2022-12-18T16:36:48;46.23;;;29.63;;
19436;SDS011;9854;50.968;4.168;2022-12-18T16:39:14;46.70;;;29.77;;
19436;SDS011;9854;50.968;4.168;2022-12-18T16:41:41;51.90;;;31.87;;
19436;SDS011;9854;50.968;4.168;2022-12-18T16:44:06;43.77;;;30.40;;
19436;SDS011;9854;50.968;4.168;2022-12-18T16:46:32;47.90;;;29.83;;
19436;SDS011;9854;50.968;4.168;2022-12-18T16:48:58;45.13;;;29.80;;
19436;SDS011;9854;50.968;4.168;2022-12-18T16:51:25;51.03;;;32.07;;
19436;SDS011;9854;50.968;4.168;2022-12-18T16:53:52;49.20;;;31.03;;
19436;SDS011;9854;50.968;4.168;2022-12-18T16:56:21;47.40;;;30.43;;
19436;SDS011;9854;50.968;4.168;2022-12-18T16:58:51;45.40;;;29.37;;
19436;SDS011;9854;50.968;4.168;2022-12-18T17:01:18;41.87;;;27.93;;
19436;SDS011;9854;50.968;4.168;2022-12-18T17:03:50;45.00;;;29.63;;
19436;SDS011;9854;50.968;4.168;2022-12-18T17:06:17;48.90;;;31.00;;
19436;SDS011;9854;50.968;4.168;2022-12-18T17:08:43;45.00;;;29.80;;